Time;durP1;ratioP1;P1;durP2;ratioP2;P2;SDS_P1;SDS_P2;PMS_P1;PMS_P2;Temp;Humidity;BMP_temperature;BMP_pressure;BME280_temperature;BME280_humidity;BME280_pressure;Samples;Min_cycle;Max_cycle;Signal;HPM_P1;HPM_P2
2020/12/06 00:00:36;;;;;;;13.93;8.13;;;17.60;60.70;;;;;;5035626;28;20264;-88
2020/12/06 00:03:03;;;;;;;14.45;7.75;;;17.70;60.80;;;;;;5051622;28;20238;-87
2020/12/06 00:05:29;;;;;;;17.00;8.93;;;17.60;60.90;;;;;;5035459;28;20182;-88
2020/12/06 00:07:56;;;;;;;14.85;7.80;;;17.60;60.90;;;;;;5034995;28;20296;-88
2020/12/06 00:10:22;;;;;;;18.58;8.90;;;17.60;61.00;;;;;;5018415;28;20166;-87
2020/12/06 00:12:48;;;;;;;15.07;7.72;;;17.60;61.00;;;;;;5059825;28;20205;-88
2020/12/06 00:15:15;;;;;;;17.58;8.57;;;17.60;61.10;;;;;;5055727;28;20251;-87
2020/12/06 00:17:42;;;;;;;13.80;8.07;;;17.60;61.10;;;;;;5055749;28;20203;-88
2020/12/06 00:20:10;;;;;;;15.57;8.18;;;17.60;61.20;;;;;;5038908;28;20230;-88
2020/12/06 00:22:37;;;;;;;16.08;8.05;;;17.60;61.10;;;;;;5055633;28;20154;-88
2020/12/06 00:25:05;;;;;;;13.98;7.97;;;17.50;61.10;;;;;;5055852;28;20149;-88
2020/12/06 00:27:35;;;;;;;15.77;7.95;;;17.60;61.10;;;;;;5038760;28;20672;-88
2020/12/06 00:30:12;;;;;;;16.40;8.40;;;17.60;60.90;;;;;;5038801;28;20234;-87
2020/12/06 00:32:39;;;;;;;15.68;8.52;;;17.60;62.00;;;;;;5056138;28;20283;-87
2020/12/06 00:35:07;;;;;;;17.35;8.40;;;17.60;61.10;;;;;;5038788;28;20177;-88
2020/12/06 00:37:42;;;;;;;15.20;8.93;;;17.50;61.00;;;;;;5038774;28;20165;-88
2020/12/06 00:40:09;;;;;;;15.40;7.93;;;17.50;60.90;;;;;;5038737;28;20255;-88
2020/12/06 00:42:36;;;;;;;13.75;7.95;;;17.60;61.80;;;;;;5038692;28;20211;-88
2020/12/06 00:45:04;;;;;;;13.65;7.93;;;17.60;61.00;;;;;;5038682;28;20260;-88
2020/12/06 00:47:32;;;;;;;17.75;8.75;;;17.50;61.20;;;;;;5041153;28;20234;-87
2020/12/06 00:49:59;;;;;;;14.25;8.23;;;17.50;61.30;;;;;;5060361;28;20177;-87
2020/12/06 00:52:34;;;;;;;14.63;8.02;;;17.60;61.20;;;;;;5042778;28;20543;-87
2020/12/06 00:55:01;;;;;;;16.40;8.63;;;17.50;61.20;;;;;;5059429;28;20164;-87
2020/12/06 00:57:28;;;;;;;15.07;8.05;;;17.50;61.30;;;;;;5042746;28;20175;-87
2020/12/06 00:59:54;;;;;;;16.75;8.63;;;17.50;61.40;;;;;;5059557;28;20164;-88
2020/12/06 01:02:21;;;;;;;12.82;8.35;;;17.50;61.20;;;;;;5059553;28;20158;-88
2020/12/06 01:04:48;;;;;;;12.60;7.90;;;17.50;61.00;;;;;;5059267;28;20157;-87
2020/12/06 01:07:14;;;;;;;18.08;8.55;;;17.50;61.30;;;;;;5042352;28;20203;-88
2020/12/06 01:09:41;;;;;;;15.07;8.05;;;17.50;61.40;;;;;;5059359;28;20157;-87
2020/12/06 01:12:08;;;;;;;17.05;8.75;;;17.40;61.40;;;;;;5058984;28;20165;-87
2020/12/06 01:14:34;;;;;;;14.13;8.35;;;17.50;61.50;;;;;;5060827;28;20570;-88
2020/12/06 01:17:08;;;;;;;15.45;7.72;;;17.40;61.50;;;;;;5062286;28;20200;-87
2020/12/06 01:19:35;;;;;;;16.98;7.88;;;17.40;61.50;;;;;;5079265;28;20192;-88
2020/12/06 01:22:02;;;;;;;15.38;8.07;;;17.50;61.60;;;;;;5079289;28;20620;-88
2020/12/06 01:24:37;;;;;;;14.85;8.50;;;17.40;61.50;;;;;;5079484;28;20162;-88
2020/12/06 01:27:03;;;;;;;14.90;8.38;;;17.50;61.60;;;;;;5079345;28;20185;-88
2020/12/06 01:29:30;;;;;;;16.45;8.82;;;17.40;61.50;;;;;;5061997;28;20200;-88
2020/12/06 01:31:56;;;;;;;15.07;8.70;;;17.40;61.50;;;;;;5097136;28;20608;-87
2020/12/06 01:34:31;;;;;;;15.80;8.48;;;17.40;61.50;;;;;;5097152;28;20199;-88
2020/12/06 01:36:57;;;;;;;16.83;8.63;;;17.40;61.60;;;;;;5061890;28;20215;-88
2020/12/06 01:39:25;;;;;;;16.23;8.50;;;17.40;61.60;;;;;;5097014;28;20161;-88
2020/12/06 01:41:55;;;;;;;13.30;7.47;;;17.40;61.50;;;;;;5078931;28;20160;-88
2020/12/06 01:44:23;;;;;;;14.07;8.48;;;17.50;61.60;;;;;;5061845;28;20538;-86
2020/12/06 01:46:51;;;;;;;13.40;8.32;;;17.40;61.60;;;;;;5078427;28;20273;-88
2020/12/06 01:49:22;;;;;;;15.57;8.65;;;17.50;61.60;;;;;;5061770;28;20176;-87
2020/12/06 01:51:55;;;;;;;13.43;8.23;;;17.50;61.60;;;;;;5078466;28;20153;-87
2020/12/06 01:54:23;;;;;;;15.23;8.18;;;17.40;61.60;;;;;;5061596;28;20584;-86
2020/12/06 01:56:49;;;;;;;14.00;8.32;;;17.40;61.60;;;;;;5062431;28;20514;-87
2020/12/06 01:59:24;;;;;;;14.82;8.60;;;17.40;61.50;;;;;;5078427;28;20624;-87
2020/12/06 02:01:56;;;;;;;14.32;8.75;;;17.40;61.60;;;;;;5061510;28;20259;-86
2020/12/06 02:04:24;;;;;;;13.35;8.32;;;17.40;61.80;;;;;;5061413;28;20218;-87
2020/12/06 02:06:51;;;;;;;15.95;9.15;;;17.40;61.80;;;;;;5062141;28;20196;-87
2020/12/06 02:09:18;;;;;;;15.55;8.57;;;17.40;61.90;;;;;;5078119;28;20141;-88
2020/12/06 02:11:45;;;;;;;14.43;8.30;;;17.40;61.80;;;;;;5078171;28;20165;-87
2020/12/06 02:14:12;;;;;;;15.82;8.98;;;17.40;61.60;;;;;;5077979;28;20691;-87
2020/12/06 02:16:38;;;;;;;14.75;8.75;;;17.30;61.80;;;;;;5078005;28;20177;-87
2020/12/06 02:19:24;;;;;;;15.15;8.35;;;17.30;61.90;;;;;;5077923;28;20165;-89
2020/12/06 02:21:51;;;;;;;14.88;8.50;;;17.30;62.00;;;;;;5093816;28;20157;-87
2020/12/06 02:24:18;;;;;;;14.65;8.50;;;17.40;61.90;;;;;;5077914;28;20160;-88
2020/12/06 02:26:46;;;;;;;14.55;8.40;;;17.30;61.80;;;;;;5060910;28;20579;-86
2020/12/06 02:29:13;;;;;;;16.02;8.43;;;17.40;61.80;;;;;;5077683;28;20153;-86
2020/12/06 02:31:39;;;;;;;17.08;8.55;;;17.40;61.90;;;;;;5078010;28;20583;-86
2020/12/06 02:34:06;;;;;;;16.08;8.73;;;17.30;62.00;;;;;;5077569;28;20180;-87
2020/12/06 02:36:33;;;;;;;17.25;8.77;;;17.30;62.10;;;;;;5078168;28;20158;-86
2020/12/06 02:39:00;;;;;;;15.23;9.25;;;17.30;62.00;;;;;;5077814;28;20500;-87
2020/12/06 02:41:38;;;;;;;15.50;8.32;;;17.30;62.00;;;;;;5060710;28;20171;-86
2020/12/06 02:44:05;;;;;;;13.82;8.68;;;17.30;62.10;;;;;;5077230;28;20179;-86
2020/12/06 02:46:32;;;;;;;14.25;9.07;;;17.30;62.10;;;;;;5060539;28;20175;-86
2020/12/06 02:48:59;;;;;;;15.85;8.57;;;17.30;61.90;;;;;;5077639;28;20153;-88
2020/12/06 02:51:25;;;;;;;13.88;8.90;;;17.30;61.90;;;;;;5077568;28;20269;-87
2020/12/06 02:53:53;;;;;;;14.68;8.05;;;17.30;62.00;;;;;;5060431;28;20165;-88
2020/12/06 02:56:27;;;;;;;17.00;8.65;;;17.40;62.00;;;;;;5060444;28;20218;-87
2020/12/06 02:58:53;;;;;;;16.95;9.00;;;17.30;61.90;;;;;;5077414;28;20156;-87
2020/12/06 03:01:20;;;;;;;16.67;8.90;;;17.30;62.00;;;;;;5060593;28;20181;-87
2020/12/06 03:03:47;;;;;;;14.85;8.20;;;17.30;62.00;;;;;;5077406;28;20165;-87
2020/12/06 03:06:21;;;;;;;15.10;8.80;;;17.30;62.00;;;;;;5060274;28;20216;-88
2020/12/06 03:08:56;;;;;;;16.73;9.18;;;17.30;62.10;;;;;;5076623;28;20192;-86
2020/12/06 03:11:25;;;;;;;16.88;9.43;;;17.30;62.10;;;;;;5077201;28;20664;-88
2020/12/06 03:13:51;;;;;;;16.08;8.88;;;17.30;62.10;;;;;;5060174;28;20628;-87
2020/12/06 03:16:18;;;;;;;17.48;9.50;;;17.30;62.20;;;;;;5043484;28;20176;-86
2020/12/06 03:18:44;;;;;;;15.73;8.57;;;17.30;62.10;;;;;;5059967;28;20177;-88
2020/12/06 03:21:11;;;;;;;17.05;8.85;;;17.30;62.10;;;;;;5076933;28;20161;-87
2020/12/06 03:23:38;;;;;;;15.10;8.27;;;17.30;62.20;;;;;;5059892;28;20168;-87
2020/12/06 03:26:05;;;;;;;19.88;8.85;;;17.30;62.10;;;;;;5059904;28;20168;-87
2020/12/06 03:28:39;;;;;;;14.25;8.38;;;17.30;62.20;;;;;;5059827;28;20665;-88
2020/12/06 03:31:06;;;;;;;15.88;8.30;;;17.30;62.10;;;;;;5076864;28;20191;-88
2020/12/06 03:33:32;;;;;;;15.65;9.25;;;17.30;62.10;;;;;;5076670;28;20622;-88
2020/12/06 03:35:59;;;;;;;15.93;8.65;;;17.30;62.10;;;;;;5094461;28;20156;-88
2020/12/06 03:38:25;;;;;;;14.60;9.00;;;17.30;62.00;;;;;;5094704;28;20608;-87
2020/12/06 03:40:51;;;;;;;17.33;8.88;;;17.30;61.90;;;;;;5077093;28;20606;-88
2020/12/06 03:43:18;;;;;;;15.35;9.00;;;17.40;61.90;;;;;;5076572;28;20198;-87
2020/12/06 03:45:45;;;;;;;15.32;8.75;;;17.30;61.90;;;;;;5060273;28;20171;-88
2020/12/06 03:48:12;;;;;;;16.50;8.77;;;17.30;61.90;;;;;;5059272;28;20199;-87
2020/12/06 03:50:47;;;;;;;17.27;8.93;;;17.40;61.80;;;;;;5076432;28;20164;-86
2020/12/06 03:53:14;;;;;;;15.63;9.10;;;17.40;62.00;;;;;;5059684;28;20213;-88
2020/12/06 03:55:48;;;;;;;17.10;9.40;;;17.30;61.80;;;;;;5059219;28;20168;-88
2020/12/06 03:58:15;;;;;;;16.90;9.25;;;17.40;62.30;;;;;;5094030;28;20153;-87
2020/12/06 04:00:41;;;;;;;17.60;9.45;;;17.30;62.00;;;;;;5075986;28;20676;-87
2020/12/06 04:03:16;;;;;;;14.80;8.73;;;17.30;62.10;;;;;;5075814;28;20654;-88
2020/12/06 04:05:43;;;;;;;17.35;9.32;;;17.30;62.10;;;;;;5076770;28;20238;-87
2020/12/06 04:08:09;;;;;;;14.18;8.57;;;17.30;62.00;;;;;;5059053;28;20219;-87
2020/12/06 04:10:36;;;;;;;17.35;9.23;;;17.30;61.90;;;;;;5076401;28;20239;-88
2020/12/06 04:13:02;;;;;;;14.10;9.00;;;17.30;62.20;;;;;;5072138;28;20296;-87
2020/12/06 04:15:28;;;;;;;15.90;8.80;;;17.30;62.30;;;;;;5056328;28;20176;-89
2020/12/06 04:17:55;;;;;;;15.40;8.93;;;17.30;62.00;;;;;;5072328;28;20169;-87
2020/12/06 04:20:22;;;;;;;13.95;8.50;;;17.30;62.00;;;;;;5072495;28;20162;-88
2020/12/06 04:22:48;;;;;;;15.55;9.07;;;17.30;62.20;;;;;;5073155;28;20162;-88
2020/12/06 04:25:15;;;;;;;15.35;8.57;;;17.30;62.10;;;;;;5072193;28;20180;-87
2020/12/06 04:27:42;;;;;;;19.30;9.45;;;17.30;62.20;;;;;;5072203;28;20241;-89
2020/12/06 04:30:08;;;;;;;15.27;8.85;;;17.30;62.10;;;;;;5072255;28;20240;-87
2020/12/06 04:32:35;;;;;;;16.05;9.18;;;17.30;62.10;;;;;;5072153;28;20612;-88
2020/12/06 04:35:09;;;;;;;14.68;8.70;;;17.30;62.30;;;;;;5073331;28;20177;-88
2020/12/06 04:37:36;;;;;;;15.48;9.25;;;17.30;62.10;;;;;;5055447;28;20168;-87
2020/12/06 04:40:03;;;;;;;13.95;9.00;;;17.30;62.20;;;;;;5073562;28;20248;-87
2020/12/06 04:42:38;;;;;;;15.07;9.25;;;17.30;62.30;;;;;;5072101;28;20241;-89
2020/12/06 04:45:05;;;;;;;16.15;8.63;;;17.30;62.10;;;;;;5056161;28;20180;-88
2020/12/06 04:47:52;;;;;;;14.48;8.52;;;17.30;62.40;;;;;;5072018;28;20280;-87
2020/12/06 04:50:34;;;;;;;17.52;9.57;;;17.30;62.70;;;;;;5071951;28;20173;-87
2020/12/06 04:53:03;;;;;;;16.05;9.27;;;17.30;62.30;;;;;;5072333;28;20154;-87
2020/12/06 04:55:34;;;;;;;15.07;9.02;;;17.20;62.80;;;;;;5055229;28;20165;-87
2020/12/06 04:58:03;;;;;;;14.70;9.20;;;17.20;62.70;;;;;;5055127;28;20173;-87
2020/12/06 05:00:45;;;;;;;15.75;8.88;;;17.20;62.40;;;;;;5055148;28;20178;-86
2020/12/06 05:03:11;;;;;;;12.70;9.15;;;17.30;62.50;;;;;;5055917;28;20208;-87
2020/12/06 05:05:39;;;;;;;15.40;9.25;;;17.20;62.40;;;;;;5055374;28;20624;-87
2020/12/06 05:08:12;;;;;;;16.05;9.07;;;17.30;62.50;;;;;;5071748;28;20699;-87
2020/12/06 05:10:46;;;;;;;16.80;9.20;;;17.30;62.40;;;;;;5072167;28;20203;-87
2020/12/06 05:13:12;;;;;;;15.05;9.38;;;17.20;62.40;;;;;;5055564;28;20212;-87
2020/12/06 05:15:39;;;;;;;13.88;9.07;;;17.30;62.60;;;;;;5038493;28;20264;-88
2020/12/06 05:18:14;;;;;;;16.20;9.13;;;17.30;62.70;;;;;;5072091;28;20162;-87
2020/12/06 05:20:40;;;;;;;17.40;9.50;;;17.30;62.40;;;;;;5072011;28;20161;-88
2020/12/06 05:23:07;;;;;;;14.27;9.07;;;17.20;62.20;;;;;;5054970;28;20544;-87
2020/12/06 05:25:33;;;;;;;14.80;9.27;;;17.30;62.20;;;;;;5071702;28;20222;-88
2020/12/06 05:28:00;;;;;;;16.48;9.15;;;17.30;62.40;;;;;;5071632;28;20268;-88
2020/12/06 05:30:39;;;;;;;15.65;9.32;;;17.20;62.60;;;;;;5071995;28;20601;-87
2020/12/06 05:33:05;;;;;;;17.80;9.68;;;17.20;62.50;;;;;;5056870;28;20294;-87
2020/12/06 05:35:32;;;;;;;14.77;9.27;;;17.30;62.50;;;;;;5058881;28;20169;-88
2020/12/06 05:37:59;;;;;;;16.83;9.55;;;17.30;62.80;;;;;;5058562;28;20181;-88
2020/12/06 05:40:26;;;;;;;18.05;9.05;;;17.30;62.50;;;;;;5075309;28;20177;-88
2020/12/06 05:42:52;;;;;;;15.50;9.50;;;17.30;62.70;;;;;;5075439;28;20200;-88
2020/12/06 05:45:19;;;;;;;16.30;9.48;;;17.30;62.70;;;;;;5075145;28;20204;-87
2020/12/06 05:47:47;;;;;;;16.70;9.60;;;17.20;62.70;;;;;;5075354;28;20664;-88
2020/12/06 05:50:14;;;;;;;15.52;9.35;;;17.20;63.20;;;;;;5075009;28;20263;-88
2020/12/06 05:52:40;;;;;;;15.68;9.00;;;17.20;62.40;;;;;;5075472;28;20162;-88
2020/12/06 05:55:07;;;;;;;15.63;9.27;;;17.20;62.40;;;;;;5075572;28;20161;-88
2020/12/06 05:57:33;;;;;;;16.00;9.23;;;17.20;62.50;;;;;;5074824;28;20614;-89
2020/12/06 06:00:01;;;;;;;18.13;9.38;;;17.20;62.30;;;;;;5074852;28;20246;-88
2020/12/06 06:02:28;;;;;;;16.25;9.38;;;17.20;62.30;;;;;;5075398;28;20188;-88
2020/12/06 06:05:01;;;;;;;13.25;9.05;;;17.20;62.30;;;;;;5076002;28;20199;-87
2020/12/06 06:07:28;;;;;;;15.60;8.90;;;17.20;62.30;;;;;;5075021;28;20624;-87
2020/12/06 06:10:05;;;;;;;19.35;10.98;;;17.20;62.40;;;;;;5074779;28;20245;-88
2020/12/06 06:12:34;;;;;;;16.80;9.88;;;17.20;62.50;;;;;;5074843;28;20164;-88
2020/12/06 06:15:02;;;;;;;15.52;9.23;;;17.20;62.40;;;;;;5024879;28;20169;-88
2020/12/06 06:17:30;;;;;;;15.85;9.55;;;17.20;62.30;;;;;;5041307;28;20173;-87
2020/12/06 06:19:56;;;;;;;16.88;9.00;;;17.20;62.40;;;;;;5040980;28;20181;-87
2020/12/06 06:22:37;;;;;;;17.52;9.57;;;17.20;62.70;;;;;;5041176;28;20173;-89
2020/12/06 06:25:04;;;;;;;16.45;9.55;;;17.20;62.70;;;;;;5041637;28;20522;-87
2020/12/06 06:27:34;;;;;;;15.23;9.90;;;17.20;62.80;;;;;;5041540;28;20213;-89
2020/12/06 06:30:03;;;;;;;16.10;9.52;;;17.20;62.50;;;;;;5025161;28;20161;-89
2020/12/06 06:32:39;;;;;;;13.77;8.95;;;17.20;62.70;;;;;;5042596;28;20166;-88
2020/12/06 06:35:14;;;;;;;18.30;10.23;;;17.20;62.80;;;;;;5057998;28;20157;-88
2020/12/06 06:37:48;;;;;;;16.10;9.43;;;17.20;62.80;;;;;;5040975;28;20199;-89
2020/12/06 06:40:15;;;;;;;17.25;9.90;;;17.20;62.70;;;;;;5058256;28;20192;-89
2020/12/06 06:42:42;;;;;;;18.45;9.85;;;17.20;62.70;;;;;;5057738;28;20165;-89
2020/12/06 06:45:11;;;;;;;16.10;9.88;;;17.20;63.00;;;;;;5040164;28;20189;-88
2020/12/06 06:47:38;;;;;;;15.45;9.23;;;17.20;62.50;;;;;;5057155;28;20197;-89
2020/12/06 06:50:05;;;;;;;16.13;10.05;;;17.20;62.40;;;;;;5040647;28;20162;-88
2020/12/06 06:52:32;;;;;;;15.98;8.70;;;17.20;62.40;;;;;;5057847;28;20514;-88
2020/12/06 06:54:59;;;;;;;16.25;9.13;;;17.20;62.60;;;;;;5058174;28;20142;-89
2020/12/06 06:57:33;;;;;;;15.32;9.45;;;17.20;62.70;;;;;;5024624;28;20165;-88
2020/12/06 07:00:00;;;;;;;15.73;9.20;;;17.20;62.90;;;;;;5041427;28;20172;-88
2020/12/06 07:02:35;;;;;;;17.30;9.52;;;17.30;62.00;;;;;;5040346;28;20166;-87
2020/12/06 07:05:05;;;;;;;17.10;10.02;;;17.30;62.80;;;;;;5024902;28;20167;-88
2020/12/06 07:07:46;;;;;;;14.73;8.93;;;17.30;62.90;;;;;;5056694;28;20193;-87
2020/12/06 07:10:14;;;;;;;17.83;10.52;;;17.20;62.70;;;;;;5024538;28;20157;-88
2020/12/06 07:12:41;;;;;;;16.60;10.25;;;17.20;62.50;;;;;;5057084;28;20628;-89
2020/12/06 07:15:10;;;;;;;15.82;9.82;;;17.20;62.50;;;;;;5041034;28;20185;-87
2020/12/06 07:17:36;;;;;;;17.65;10.18;;;17.30;62.80;;;;;;5023752;28;20542;-88
2020/12/06 07:20:07;;;;;;;18.88;9.68;;;17.20;62.50;;;;;;5024092;28;20177;-88
2020/12/06 07:22:37;;;;;;;16.63;9.68;;;17.20;62.60;;;;;;5023731;28;20184;-88
2020/12/06 07:25:04;;;;;;;15.50;9.77;;;17.20;62.40;;;;;;5040008;28;20215;-88
2020/12/06 07:27:31;;;;;;;15.82;9.63;;;17.20;62.60;;;;;;5039911;28;20209;-88
2020/12/06 07:29:57;;;;;;;18.08;10.02;;;17.20;62.30;;;;;;5023523;28;20218;-88
2020/12/06 07:32:23;;;;;;;15.65;10.35;;;17.20;62.10;;;;;;5040031;28;20565;-89
2020/12/06 07:34:56;;;;;;;17.40;10.02;;;17.20;62.30;;;;;;5023862;28;20204;-90
2020/12/06 07:37:27;;;;;;;18.65;10.35;;;17.20;62.30;;;;;;5024382;28;20204;-90
2020/12/06 07:39:53;;;;;;;16.88;10.10;;;17.30;62.10;;;;;;5025326;28;20173;-88
2020/12/06 07:42:39;;;;;;;16.95;9.52;;;17.30;62.10;;;;;;5024286;28;20175;-90
2020/12/06 07:45:06;;;;;;;16.42;10.38;;;17.30;62.10;;;;;;5037028;28;20227;-88
2020/12/06 07:47:32;;;;;;;17.23;9.95;;;17.30;61.70;;;;;;5020350;28;20202;-90
2020/12/06 07:49:59;;;;;;;18.65;10.15;;;17.30;61.70;;;;;;5040601;28;20168;-89
2020/12/06 07:52:45;;;;;;;19.73;10.05;;;17.30;61.80;;;;;;5021392;28;20201;-89
2020/12/06 07:55:14;;;;;;;20.85;10.77;;;17.40;61.80;;;;;;5051158;28;20162;-88
2020/12/06 07:57:53;;;;;;;18.45;10.30;;;17.40;61.60;;;;;;5038379;28;20315;-88
2020/12/06 08:00:38;;;;;;;19.00;10.18;;;17.40;61.50;;;;;;5023598;28;20193;-88
2020/12/06 08:03:07;;;;;;;19.77;10.25;;;17.50;61.30;;;;;;5021513;28;20208;-88
2020/12/06 08:05:53;;;;;;;18.42;10.15;;;17.50;61.30;;;;;;5037220;28;20162;-89
2020/12/06 08:08:39;;;;;;;18.85;10.35;;;17.50;61.00;;;;;;5023663;28;20296;-88
2020/12/06 08:11:05;;;;;;;25.92;11.82;;;17.50;61.10;;;;;;5038474;28;20291;-87
2020/12/06 08:13:30;;;;;;;19.85;10.25;;;17.50;61.20;;;;;;5026517;28;20765;-89
2020/12/06 08:16:07;;;;;;;22.17;10.52;;;17.50;61.10;;;;;;5054036;28;20170;-89
2020/12/06 08:18:33;;;;;;;19.42;10.10;;;17.50;61.00;;;;;;5054822;28;20174;-90
2020/12/06 08:21:07;;;;;;;18.35;9.60;;;17.50;61.00;;;;;;5038180;28;20265;-88
2020/12/06 08:23:39;;;;;;;21.83;10.50;;;17.50;61.00;;;;;;5037469;28;20174;-88
2020/12/06 08:26:09;;;;;;;22.48;10.75;;;17.60;60.90;;;;;;5038076;28;20197;-89
2020/12/06 08:28:35;;;;;;;23.05;10.68;;;17.60;60.90;;;;;;5037743;28;20197;-89
2020/12/06 08:31:00;;;;;;;19.67;10.27;;;17.60;60.90;;;;;;5037460;28;20166;-88
2020/12/06 08:33:27;;;;;;;21.33;10.75;;;17.60;61.20;;;;;;5037325;28;20216;-87
2020/12/06 08:35:56;;;;;;;20.23;10.32;;;17.60;61.00;;;;;;5044003;28;20248;-87
2020/12/06 08:38:24;;;;;;;22.50;10.57;;;17.60;61.00;;;;;;5061667;28;20174;-88
2020/12/06 08:41:01;;;;;;;23.48;10.57;;;17.60;60.80;;;;;;5055687;28;20162;-88
2020/12/06 08:43:48;;;;;;;28.23;10.85;;;17.60;60.90;;;;;;5057968;28;20176;-88
2020/12/06 08:46:19;;;;;;;29.80;11.05;;;17.60;61.00;;;;;;5075753;28;20192;-87
2020/12/06 08:48:50;;;;;;;26.77;10.80;;;17.60;61.00;;;;;;5057398;28;20189;-90
2020/12/06 08:51:37;;;;;;;24.83;11.05;;;17.70;60.90;;;;;;5060076;28;20207;-88
2020/12/06 08:54:07;;;;;;;26.80;10.77;;;17.70;60.80;;;;;;5058848;28;20168;-89
2020/12/06 08:56:42;;;;;;;33.35;11.50;;;17.70;61.00;;;;;;5043287;28;20248;-88
2020/12/06 08:59:15;;;;;;;31.83;12.23;;;17.70;61.20;;;;;;5072859;28;20149;-89
2020/12/06 09:01:55;;;;;;;32.42;11.40;;;17.70;61.30;;;;;;5058124;28;20244;-87
2020/12/06 09:04:24;;;;;;;30.40;11.43;;;17.70;61.50;;;;;;5061486;28;20224;-88
2020/12/06 09:06:53;;;;;;;40.60;12.60;;;17.70;61.10;;;;;;5076788;28;20642;-88
2020/12/06 09:09:28;;;;;;;35.50;11.25;;;17.70;61.00;;;;;;5064788;28;20162;-87
2020/12/06 09:12:03;;;;;;;32.88;13.18;;;17.70;61.20;;;;;;5065350;28;20180;-86
2020/12/06 09:14:31;;;;;;;33.85;12.20;;;17.60;61.70;;;;;;5062130;28;20278;-88
2020/12/06 09:16:58;;;;;;;47.30;13.05;;;17.60;62.00;;;;;;5061454;28;20257;-88
2020/12/06 09:19:31;;;;;;;32.35;12.52;;;17.50;61.70;;;;;;5078989;28;20164;-87
2020/12/06 09:21:59;;;;;;;36.75;12.43;;;17.50;61.70;;;;;;5062010;28;20219;-88
2020/12/06 09:24:35;;;;;;;37.33;12.32;;;17.60;61.60;;;;;;5078322;28;20176;-87
2020/12/06 09:27:09;;;;;;;33.38;13.80;;;17.60;61.70;;;;;;5060115;28;20573;-87
2020/12/06 09:29:36;;;;;;;27.08;12.88;;;17.60;61.60;;;;;;5076840;28;20172;-88
2020/12/06 09:32:03;;;;;;;35.15;13.15;;;17.60;61.80;;;;;;5061258;28;20165;-88
2020/12/06 09:34:30;;;;;;;39.13;12.98;;;17.60;61.80;;;;;;5061473;28;20612;-88
2020/12/06 09:37:01;;;;;;;35.78;13.13;;;17.60;62.00;;;;;;5078425;28;20177;-88
2020/12/06 09:39:36;;;;;;;39.05;12.32;;;17.60;61.80;;;;;;5060556;28;20219;-88
2020/12/06 09:42:03;;;;;;;34.35;13.35;;;17.60;61.60;;;;;;5060525;28;20233;-88
2020/12/06 09:44:29;;;;;;;37.40;13.45;;;17.70;61.90;;;;;;5060429;28;20166;-87
2020/12/06 09:46:56;;;;;;;30.10;12.40;;;17.60;62.10;;;;;;5076068;28;20157;-87
2020/12/06 09:49:23;;;;;;;41.60;13.98;;;17.60;62.10;;;;;;5060345;28;20219;-88
2020/12/06 09:51:56;;;;;;;34.40;14.27;;;17.60;62.10;;;;;;5059519;28;20176;-88
2020/12/06 09:54:23;;;;;;;31.63;12.75;;;17.70;62.10;;;;;;5076139;28;20192;-87
2020/12/06 09:57:02;;;;;;;30.58;12.80;;;17.60;62.00;;;;;;5059009;28;20169;-87
2020/12/06 09:59:30;;;;;;;28.55;12.55;;;17.70;61.70;;;;;;5058912;28;20176;-87
2020/12/06 10:02:00;;;;;;;35.53;13.18;;;17.70;61.70;;;;;;5075558;28;20200;-89
2020/12/06 10:04:26;;;;;;;36.42;12.50;;;17.70;61.70;;;;;;5077883;28;20156;-87
2020/12/06 10:07:03;;;;;;;27.10;13.15;;;17.70;61.60;;;;;;5076206;28;20153;-88
2020/12/06 10:09:38;;;;;;;29.08;11.85;;;17.70;61.80;;;;;;5058908;28;20173;-87
2020/12/06 10:12:13;;;;;;;30.85;13.38;;;17.70;61.80;;;;;;5059309;28;20172;-88
2020/12/06 10:14:41;;;;;;;32.85;12.85;;;17.70;62.00;;;;;;5058122;28;20257;-88
2020/12/06 10:17:07;;;;;;;26.90;12.55;;;17.60;62.00;;;;;;5075280;28;20158;-85
2020/12/06 10:19:34;;;;;;;35.92;12.40;;;17.70;61.90;;;;;;5073888;28;20161;-86
2020/12/06 10:22:03;;;;;;;34.65;12.38;;;17.70;61.80;;;;;;5075285;28;20161;-87
2020/12/06 10:24:30;;;;;;;35.35;13.55;;;17.70;62.00;;;;;;5074823;28;20174;-87
2020/12/06 10:26:59;;;;;;;39.50;13.18;;;17.70;61.80;;;;;;5058458;28;20169;-88
2020/12/06 10:29:26;;;;;;;37.65;13.63;;;17.60;62.00;;;;;;5058258;28;20642;-87
2020/12/06 10:31:54;;;;;;;41.03;14.73;;;17.70;62.00;;;;;;5057752;28;20169;-88
2020/12/06 10:34:21;;;;;;;40.25;13.65;;;17.70;62.00;;;;;;5074407;28;20636;-87
2020/12/06 10:36:52;;;;;;;31.40;13.60;;;17.70;62.10;;;;;;5057591;28;20169;-88
2020/12/06 10:39:27;;;;;;;30.30;12.75;;;17.70;62.00;;;;;;5074605;28;20616;-89
2020/12/06 10:41:55;;;;;;;32.33;12.73;;;17.80;62.10;;;;;;5057717;28;20161;-88
2020/12/06 10:44:22;;;;;;;32.50;13.25;;;17.70;62.10;;;;;;5060106;28;20161;-88
2020/12/06 10:46:49;;;;;;;30.30;13.30;;;17.70;62.10;;;;;;5078125;28;20151;-87
2020/12/06 10:49:16;;;;;;;35.72;13.20;;;17.70;62.20;;;;;;5078132;28;20244;-87
2020/12/06 10:51:51;;;;;;;31.02;13.30;;;17.80;62.10;;;;;;5061326;28;20217;-87
2020/12/06 10:54:19;;;;;;;26.83;13.00;;;17.80;61.90;;;;;;5061939;28;20161;-87
2020/12/06 10:56:46;;;;;;;37.90;12.93;;;17.80;61.80;;;;;;5077858;28;20161;-88
2020/12/06 10:59:13;;;;;;;34.47;13.10;;;17.80;61.90;;;;;;5061379;28;20199;-88
2020/12/06 11:01:39;;;;;;;29.75;12.93;;;17.80;61.70;;;;;;5061050;28;20650;-88
2020/12/06 11:04:14;;;;;;;31.55;12.90;;;17.90;61.80;;;;;;5061601;28;20577;-88
2020/12/06 11:06:43;;;;;;;28.55;13.45;;;17.90;61.80;;;;;;5062225;28;20172;-89
2020/12/06 11:09:10;;;;;;;33.65;13.60;;;17.80;61.80;;;;;;5078440;28;20185;-87
2020/12/06 11:11:37;;;;;;;31.23;12.60;;;17.80;61.90;;;;;;5079679;28;20214;-89
2020/12/06 11:14:04;;;;;;;30.95;13.60;;;17.80;62.00;;;;;;5077694;28;20296;-88
2020/12/06 11:16:30;;;;;;;23.70;13.32;;;17.90;61.70;;;;;;5079510;28;20532;-88
2020/12/06 11:18:57;;;;;;;33.60;13.38;;;17.90;61.40;;;;;;5060851;28;20252;-88
2020/12/06 11:21:32;;;;;;;35.72;14.27;;;17.90;61.70;;;;;;5075004;28;20169;-87
2020/12/06 11:23:59;;;;;;;28.75;13.75;;;18.00;61.50;;;;;;5076338;28;20157;-87
2020/12/06 11:26:25;;;;;;;30.35;13.43;;;18.00;61.60;;;;;;5074148;28;20610;-88
2020/12/06 11:28:59;;;;;;;32.35;14.00;;;18.00;61.80;;;;;;5074387;28;20197;-88
2020/12/06 11:31:34;;;;;;;29.42;13.93;;;17.90;61.70;;;;;;5058778;28;20161;-88
2020/12/06 11:34:09;;;;;;;36.17;14.02;;;18.00;61.50;;;;;;5058864;28;20192;-88
2020/12/06 11:36:35;;;;;;;36.22;14.15;;;18.00;61.80;;;;;;5075143;28;20150;-86
2020/12/06 11:39:02;;;;;;;36.38;14.57;;;18.00;61.90;;;;;;5076135;28;20156;-87
2020/12/06 11:41:29;;;;;;;29.63;14.77;;;17.90;62.00;;;;;;5073684;28;20169;-88
2020/12/06 11:43:57;;;;;;;29.20;14.48;;;18.00;61.90;;;;;;5074046;28;20176;-87
2020/12/06 11:46:24;;;;;;;39.13;14.07;;;18.00;61.80;;;;;;5057695;28;20318;-87
2020/12/06 11:48:50;;;;;;;34.75;14.93;;;17.90;62.10;;;;;;5059652;28;20192;-87
2020/12/06 11:51:19;;;;;;;33.92;13.52;;;18.00;62.40;;;;;;5058440;28;20162;-88
2020/12/06 11:53:46;;;;;;;32.75;14.65;;;18.00;62.00;;;;;;5074003;28;20154;-87
2020/12/06 11:56:14;;;;;;;34.92;14.32;;;18.00;62.30;;;;;;5077237;28;20203;-87
2020/12/06 11:58:49;;;;;;;29.13;13.15;;;17.90;62.30;;;;;;5060404;28;20528;-88
2020/12/06 12:01:16;;;;;;;32.03;14.15;;;18.00;62.20;;;;;;5076711;28;20161;-87
2020/12/06 12:03:58;;;;;;;28.25;13.15;;;18.00;62.00;;;;;;5062162;28;20169;-87
2020/12/06 12:06:25;;;;;;;27.10;14.25;;;18.10;62.00;;;;;;5061294;28;20162;-85
2020/12/06 12:08:54;;;;;;;30.23;14.18;;;18.10;61.60;;;;;;5060664;28;20193;-87
2020/12/06 12:11:22;;;;;;;34.85;14.10;;;18.10;62.00;;;;;;5062256;28;20173;-86
2020/12/06 12:13:48;;;;;;;31.42;14.32;;;18.10;61.90;;;;;;5060010;28;20248;-86
2020/12/06 12:16:14;;;;;;;36.92;14.73;;;18.10;61.80;;;;;;5043981;28;20646;-88
2020/12/06 12:18:49;;;;;;;33.33;14.35;;;18.10;61.90;;;;;;5062659;28;20158;-87
2020/12/06 12:21:16;;;;;;;30.02;14.23;;;18.10;61.90;;;;;;5079494;28;20149;-89
2020/12/06 12:23:51;;;;;;;36.47;14.48;;;18.10;61.70;;;;;;5079092;28;20164;-87
2020/12/06 12:26:21;;;;;;;34.25;14.60;;;18.10;61.80;;;;;;5077682;28;20612;-88
2020/12/06 12:28:48;;;;;;;34.22;14.57;;;18.10;61.80;;;;;;5075267;28;20196;-88
2020/12/06 12:31:23;;;;;;;33.30;14.38;;;18.10;61.80;;;;;;5059207;28;20157;-87
2020/12/06 12:33:50;;;;;;;33.95;14.45;;;18.20;61.70;;;;;;5076373;28;20164;-85
2020/12/06 12:36:17;;;;;;;50.28;14.85;;;18.20;61.50;;;;;;5074662;28;20211;-87
2020/12/06 12:38:44;;;;;;;51.92;14.52;;;18.20;61.90;;;;;;5075286;28;20158;-87
2020/12/06 12:41:14;;;;;;;50.72;15.27;;;18.30;61.60;;;;;;5075697;28;20254;-87
2020/12/06 12:43:42;;;;;;;52.25;15.73;;;18.30;62.00;;;;;;5059944;28;20168;-89